sensor_id;sensor_type;location;lat;lon;timestamp;pressure;altitude;pressure_sealevel;temperature;humidity
68656;BME280;55638;51.122;13.606;2022-08-01T00:00:53;99831.50;;;19.41;41.15
68656;BME280;55638;51.122;13.606;2022-08-01T00:02:24;99834.22;;;19.41;41.23
68656;BME280;55638;51.122;13.606;2022-08-01T00:03:58;99831.50;;;19.41;41.24
68656;BME280;55638;51.122;13.606;2022-08-01T00:05:30;99823.28;;;19.41;41.38
68656;BME280;55638;51.122;13.606;2022-08-01T00:07:02;99830.66;;;19.41;41.02
68656;BME280;55638;51.122;13.606;2022-08-01T00:08:33;99830.84;;;19.39;41.23
68656;BME280;55638;51.122;13.606;2022-08-01T00:10:08;99827.03;;;19.40;41.41
68656;BME280;55638;51.122;13.606;2022-08-01T00:11:41;99826.22;;;19.40;41.13
68656;BME280;55638;51.122;13.606;2022-08-01T00:13:13;99815.25;;;19.40;41.40
68656;BME280;55638;51.122;13.606;2022-08-01T00:14:45;99818.84;;;19.40;41.21
68656;BME280;55638;51.122;13.606;2022-08-01T00:16:16;99817.16;;;19.39;41.17
68656;BME280;55638;51.122;13.606;2022-08-01T00:17:48;99814.41;;;19.39;41.33
68656;BME280;55638;51.122;13.606;2022-08-01T00:19:20;99814.41;;;19.39;41.34
68656;BME280;55638;51.122;13.606;2022-08-01T00:20:51;99812.72;;;19.38;41.20
68656;BME280;55638;51.122;13.606;2022-08-01T00:22:23;99810.00;;;19.38;41.06
68656;BME280;55638;51.122;13.606;2022-08-01T00:23:55;99809.34;;;19.36;41.01
68656;BME280;55638;51.122;13.606;2022-08-01T00:25:26;99811.25;;;19.36;41.24
68656;BME280;55638;51.122;13.606;2022-08-01T00:27:04;99813.53;;;19.32;40.96
68656;BME280;55638;51.122;13.606;2022-08-01T00:28:36;99814.59;;;19.31;41.27
68656;BME280;55638;51.122;13.606;2022-08-01T00:30:08;99817.75;;;19.28;41.30
68656;BME280;55638;51.122;13.606;2022-08-01T00:31:45;99806.31;;;19.25;41.40
68656;BME280;55638;51.122;13.606;2022-08-01T00:33:17;99812.41;;;19.20;41.18
68656;BME280;55638;51.122;13.606;2022-08-01T00:34:49;99815.56;;;19.17;41.26
68656;BME280;55638;51.122;13.606;2022-08-01T00:36:21;99820.81;;;19.12;41.06
68656;BME280;55638;51.122;13.606;2022-08-01T00:37:54;99812.34;;;19.07;41.52
68656;BME280;55638;51.122;13.606;2022-08-01T00:39:25;99817.56;;;19.02;41.17
68656;BME280;55638;51.122;13.606;2022-08-01T00:40:57;99813.75;;;18.96;41.33
68656;BME280;55638;51.122;13.606;2022-08-01T00:42:29;99821.66;;;18.91;41.20
68656;BME280;55638;51.122;13.606;2022-08-01T00:44:04;99822.28;;;18.86;41.43
68656;BME280;55638;51.122;13.606;2022-08-01T00:45:36;99814.22;;;18.78;41.71
68656;BME280;55638;51.122;13.606;2022-08-01T00:47:08;99814.81;;;18.73;41.23
68656;BME280;55638;51.122;13.606;2022-08-01T00:48:39;99815.59;;;18.67;41.51
68656;BME280;55638;51.122;13.606;2022-08-01T00:50:11;99815.56;;;18.61;41.54
68656;BME280;55638;51.122;13.606;2022-08-01T00:51:43;99818.03;;;18.56;41.82
68656;BME280;55638;51.122;13.606;2022-08-01T00:53:15;99821.53;;;18.49;41.86
68656;BME280;55638;51.122;13.606;2022-08-01T00:54:49;99814.13;;;18.43;42.07
68656;BME280;55638;51.122;13.606;2022-08-01T00:56:24;99813.88;;;18.38;42.19
68656;BME280;55638;51.122;13.606;2022-08-01T00:57:56;99817.41;;;18.32;42.24
68656;BME280;55638;51.122;13.606;2022-08-01T00:59:37;99821.56;;;18.28;42.09
68656;BME280;55638;51.122;13.606;2022-08-01T01:01:11;99815.19;;;18.21;42.32
68656;BME280;55638;51.122;13.606;2022-08-01T01:02:43;99814.91;;;18.16;42.23
68656;BME280;55638;51.122;13.606;2022-08-01T01:04:16;99804.75;;;18.10;42.71
68656;BME280;55638;51.122;13.606;2022-08-01T01:05:56;99809.97;;;18.04;42.91
68656;BME280;55638;51.122;13.606;2022-08-01T01:07:59;99805.44;;;17.97;42.73
68656;BME280;55638;51.122;13.606;2022-08-01T01:09:45;99810.28;;;17.95;43.11
68656;BME280;55638;51.122;13.606;2022-08-01T01:11:25;99806.88;;;17.93;43.20
68656;BME280;55638;51.122;13.606;2022-08-01T01:13:05;99811.88;;;17.89;43.26
68656;BME280;55638;51.122;13.606;2022-08-01T01:16:36;99806.16;;;17.84;43.40
68656;BME280;55638;51.122;13.606;2022-08-01T01:20:05;99803.63;;;17.82;43.68
68656;BME280;55638;51.122;13.606;2022-08-01T01:21:58;99808.63;;;17.79;43.74
68656;BME280;55638;51.122;13.606;2022-08-01T01:25:23;99802.56;;;17.83;43.77
68656;BME280;55638;51.122;13.606;2022-08-01T01:27:04;99804.25;;;17.85;44.21
68656;BME280;55638;51.122;13.606;2022-08-01T01:29:11;99804.25;;;17.85;44.17
68656;BME280;55638;51.122;13.606;2022-08-01T01:30:48;99800.75;;;17.91;43.78
68656;BME280;55638;51.122;13.606;2022-08-01T01:32:31;99804.31;;;17.91;44.00
68656;BME280;55638;51.122;13.606;2022-08-01T01:34:07;99800.38;;;17.94;43.79
68656;BME280;55638;51.122;13.606;2022-08-01T01:35:42;99808.19;;;17.97;43.94
68656;BME280;55638;51.122;13.606;2022-08-01T01:37:18;99805.06;;;18.00;44.10
68656;BME280;55638;51.122;13.606;2022-08-01T01:38:52;99799.41;;;18.01;43.96
68656;BME280;55638;51.122;13.606;2022-08-01T01:40:26;99803.63;;;18.04;43.85
68656;BME280;55638;51.122;13.606;2022-08-01T01:41:59;99806.81;;;18.08;44.02
68656;BME280;55638;51.122;13.606;2022-08-01T01:43:32;99798.22;;;18.11;43.93
68656;BME280;55638;51.122;13.606;2022-08-01T01:45:05;99798.72;;;18.14;43.67
68656;BME280;55638;51.122;13.606;2022-08-01T01:46:38;99802.91;;;18.17;43.96
68656;BME280;55638;51.122;13.606;2022-08-01T01:48:13;99798.81;;;18.21;43.88
68656;BME280;55638;51.122;13.606;2022-08-01T01:49:47;99793.97;;;18.23;43.89
68656;BME280;55638;51.122;13.606;2022-08-01T01:51:22;99796.31;;;18.26;44.03
68656;BME280;55638;51.122;13.606;2022-08-01T01:52:55;99791.69;;;18.26;43.58
68656;BME280;55638;51.122;13.606;2022-08-01T01:54:31;99795.09;;;18.28;43.76
68656;BME280;55638;51.122;13.606;2022-08-01T01:56:04;99793.84;;;18.31;43.45
68656;BME280;55638;51.122;13.606;2022-08-01T01:57:39;99797.22;;;18.33;43.83
68656;BME280;55638;51.122;13.606;2022-08-01T01:59:11;99791.75;;;18.33;43.69
68656;BME280;55638;51.122;13.606;2022-08-01T02:00:45;99797.88;;;18.35;43.72
68656;BME280;55638;51.122;13.606;2022-08-01T02:02:18;99791.34;;;18.36;43.78
68656;BME280;55638;51.122;13.606;2022-08-01T02:03:51;99795.81;;;18.37;43.69
68656;BME280;55638;51.122;13.606;2022-08-01T02:05:25;99793.06;;;18.37;43.30
68656;BME280;55638;51.122;13.606;2022-08-01T02:06:58;99793.06;;;18.37;43.34
68656;BME280;55638;51.122;13.606;2022-08-01T02:08:32;99792.00;;;18.38;43.52
68656;BME280;55638;51.122;13.606;2022-08-01T02:10:07;99793.69;;;18.39;43.55
68656;BME280;55638;51.122;13.606;2022-08-01T02:11:40;99794.34;;;18.41;43.78
68656;BME280;55638;51.122;13.606;2022-08-01T02:13:34;99801.50;;;18.42;43.63
68656;BME280;55638;51.122;13.606;2022-08-01T02:15:08;99797.72;;;18.43;43.48
68656;BME280;55638;51.122;13.606;2022-08-01T02:16:43;99801.13;;;18.45;43.90
68656;BME280;55638;51.122;13.606;2022-08-01T02:18:15;99803.84;;;18.45;43.86
68656;BME280;55638;51.122;13.606;2022-08-01T02:19:54;99813.72;;;18.46;43.54
68656;BME280;55638;51.122;13.606;2022-08-01T02:21:39;99809.13;;;18.47;43.88
68656;BME280;55638;51.122;13.606;2022-08-01T02:23:12;99818.81;;;18.49;43.55
68656;BME280;55638;51.122;13.606;2022-08-01T02:26:36;99823.03;;;18.52;43.58
68656;BME280;55638;51.122;13.606;2022-08-01T02:28:15;99816.72;;;18.51;43.99
68656;BME280;55638;51.122;13.606;2022-08-01T02:29:56;99813.78;;;18.53;43.90
68656;BME280;55638;51.122;13.606;2022-08-01T02:31:32;99817.41;;;18.54;44.05
68656;BME280;55638;51.122;13.606;2022-08-01T02:33:12;99819.06;;;18.55;43.65
68656;BME280;55638;51.122;13.606;2022-08-01T02:34:49;99815.28;;;18.56;43.73
68656;BME280;55638;51.122;13.606;2022-08-01T02:36:25;99814.28;;;18.57;43.73
68656;BME280;55638;51.122;13.606;2022-08-01T02:38:05;99814.06;;;18.58;43.83
68656;BME280;55638;51.122;13.606;2022-08-01T02:39:38;99820.38;;;18.59;43.67
68656;BME280;55638;51.122;13.606;2022-08-01T02:41:17;99821.03;;;18.61;43.91
68656;BME280;55638;51.122;13.606;2022-08-01T02:42:52;99818.06;;;18.62;44.42
68656;BME280;55638;51.122;13.606;2022-08-01T02:44:28;99818.06;;;18.62;45.25
68656;BME280;55638;51.122;13.606;2022-08-01T02:46:02;99813.44;;;18.63;44.52
68656;BME280;55638;51.122;13.606;2022-08-01T02:47:37;99807.97;;;18.63;44.60
68656;BME280;55638;51.122;13.606;2022-08-01T02:49:10;99814.72;;;18.60;44.83
68656;BME280;55638;51.122;13.606;2022-08-01T02:50:47;99818.69;;;18.58;45.46
68656;BME280;55638;51.122;13.606;2022-08-01T02:52:21;99819.91;;;18.55;45.43
68656;BME280;55638;51.122;13.606;2022-08-01T02:53:55;99814.00;;;18.51;45.10
68656;BME280;55638;51.122;13.606;2022-08-01T02:55:29;99811.66;;;18.48;45.17
68656;BME280;55638;51.122;13.606;2022-08-01T02:57:04;99815.84;;;18.44;45.21
68656;BME280;55638;51.122;13.606;2022-08-01T02:58:38;99814.53;;;18.40;45.77
68656;BME280;55638;51.122;13.606;2022-08-01T03:00:11;99811.53;;;18.35;45.93
68656;BME280;55638;51.122;13.606;2022-08-01T03:01:45;99810.44;;;18.29;46.14
68656;BME280;55638;51.122;13.606;2022-08-01T03:03:18;99815.66;;;18.24;46.16
68656;BME280;55638;51.122;13.606;2022-08-01T03:04:52;99815.19;;;18.21;46.50
68656;BME280;55638;51.122;13.606;2022-08-01T03:06:28;99814.22;;;18.14;46.25
68656;BME280;55638;51.122;13.606;2022-08-01T03:08:01;99815.66;;;18.10;46.06
68656;BME280;55638;51.122;13.606;2022-08-01T03:09:38;99813.72;;;18.03;46.53
68656;BME280;55638;51.122;13.606;2022-08-01T03:11:12;99819.94;;;17.97;46.04
68656;BME280;55638;51.122;13.606;2022-08-01T03:12:45;99818.84;;;17.92;46.20
68656;BME280;55638;51.122;13.606;2022-08-01T03:14:20;99814.16;;;17.86;46.46
68656;BME280;55638;51.122;13.606;2022-08-01T03:15:54;99813.88;;;17.80;46.17
68656;BME280;55638;51.122;13.606;2022-08-01T03:17:28;99814.66;;;17.74;46.36
68656;BME280;55638;51.122;13.606;2022-08-01T03:19:01;99818.81;;;17.70;46.44
68656;BME280;55638;51.122;13.606;2022-08-01T03:20:34;99817.50;;;17.66;46.58
68656;BME280;55638;51.122;13.606;2022-08-01T03:22:08;99816.84;;;17.64;46.95
68656;BME280;55638;51.122;13.606;2022-08-01T03:23:41;99819.94;;;17.61;46.97
68656;BME280;55638;51.122;13.606;2022-08-01T03:25:15;99819.94;;;17.61;47.28
68656;BME280;55638;51.122;13.606;2022-08-01T03:26:48;99822.88;;;17.59;47.03
68656;BME280;55638;51.122;13.606;2022-08-01T03:28:21;99814.03;;;17.57;47.15
68656;BME280;55638;51.122;13.606;2022-08-01T03:30:03;99819.50;;;17.57;47.99
68656;BME280;55638;51.122;13.606;2022-08-01T03:31:36;99824.13;;;17.57;47.36
68656;BME280;55638;51.122;13.606;2022-08-01T03:33:09;99819.50;;;17.57;47.31
68656;BME280;55638;51.122;13.606;2022-08-01T03:34:45;99822.22;;;17.57;47.55
68656;BME280;55638;51.122;13.606;2022-08-01T03:36:21;99818.66;;;17.57;48.01
68656;BME280;55638;51.122;13.606;2022-08-01T03:37:56;99814.88;;;17.58;47.66
68656;BME280;55638;51.122;13.606;2022-08-01T03:39:49;99817.44;;;17.59;47.49
68656;BME280;55638;51.122;13.606;2022-08-01T03:41:26;99822.06;;;17.59;47.61
68656;BME280;55638;51.122;13.606;2022-08-01T03:43:02;99823.72;;;17.60;47.84
68656;BME280;55638;51.122;13.606;2022-08-01T03:44:35;99821.84;;;17.61;47.65
68656;BME280;55638;51.122;13.606;2022-08-01T03:46:24;99824.38;;;17.62;47.79
68656;BME280;55638;51.122;13.606;2022-08-01T03:48:05;99829.66;;;17.64;47.69
68656;BME280;55638;51.122;13.606;2022-08-01T03:49:42;99825.88;;;17.65;47.79
68656;BME280;55638;51.122;13.606;2022-08-01T03:51:15;99815.78;;;17.65;47.52
68656;BME280;55638;51.122;13.606;2022-08-01T03:52:49;99825.50;;;17.68;47.80
68656;BME280;55638;51.122;13.606;2022-08-01T03:54:24;99827.22;;;17.69;47.91
68656;BME280;55638;51.122;13.606;2022-08-01T03:55:58;99827.00;;;17.70;47.80
68656;BME280;55638;51.122;13.606;2022-08-01T03:57:31;99828.69;;;17.71;47.43
68656;BME280;55638;51.122;13.606;2022-08-01T03:59:08;99827.66;;;17.72;47.93
68656;BME280;55638;51.122;13.606;2022-08-01T04:00:40;99820.31;;;17.73;47.55
68656;BME280;55638;51.122;13.606;2022-08-01T04:02:14;99822.00;;;17.74;47.39
68656;BME280;55638;51.122;13.606;2022-08-01T04:03:46;99824.72;;;17.74;47.71
68656;BME280;55638;51.122;13.606;2022-08-01T04:05:18;99829.16;;;17.75;47.46
68656;BME280;55638;51.122;13.606;2022-08-01T04:06:50;99828.97;;;17.76;47.55
68656;BME280;55638;51.122;13.606;2022-08-01T04:08:37;99826.25;;;17.76;48.21
68656;BME280;55638;51.122;13.606;2022-08-01T04:10:09;99833.22;;;17.79;47.66
68656;BME280;55638;51.122;13.606;2022-08-01T04:11:41;99835.94;;;17.79;47.82
68656;BME280;55638;51.122;13.606;2022-08-01T04:13:13;99842.03;;;17.81;47.75
68656;BME280;55638;51.122;13.606;2022-08-01T04:14:44;99841.88;;;17.82;47.47
68656;BME280;55638;51.122;13.606;2022-08-01T04:16:16;99836.19;;;17.84;47.63
68656;BME280;55638;51.122;13.606;2022-08-01T04:17:48;99839.75;;;17.85;47.67
68656;BME280;55638;51.122;13.606;2022-08-01T04:19:20;99838.75;;;17.86;47.77
68656;BME280;55638;51.122;13.606;2022-08-01T04:20:51;99848.44;;;17.88;47.95
68656;BME280;55638;51.122;13.606;2022-08-01T04:22:23;99841.72;;;17.91;47.60
68656;BME280;55638;51.122;13.606;2022-08-01T04:24:01;99840.50;;;17.93;47.86
68656;BME280;55638;51.122;13.606;2022-08-01T04:25:36;99850.00;;;17.97;47.63
68656;BME280;55638;51.122;13.606;2022-08-01T04:27:16;99847.72;;;18.01;48.19
68656;BME280;55638;51.122;13.606;2022-08-01T04:29:10;99845.28;;;18.06;47.54
68656;BME280;55638;51.122;13.606;2022-08-01T04:30:45;99848.28;;;18.11;47.90
68656;BME280;55638;51.122;13.606;2022-08-01T04:32:18;99853.16;;;18.16;47.45
68656;BME280;55638;51.122;13.606;2022-08-01T04:33:53;99856.19;;;18.21;47.44
68656;BME280;55638;51.122;13.606;2022-08-01T04:35:27;99864.66;;;18.26;47.15
68656;BME280;55638;51.122;13.606;2022-08-01T04:37:19;99854.00;;;18.31;46.90
68656;BME280;55638;51.122;13.606;2022-08-01T04:38:55;99859.91;;;18.35;47.11
68656;BME280;55638;51.122;13.606;2022-08-01T04:40:29;99862.88;;;18.40;47.20
68656;BME280;55638;51.122;13.606;2022-08-01T04:42:04;99857.88;;;18.43;47.20
68656;BME280;55638;51.122;13.606;2022-08-01T04:43:37;99858.34;;;18.47;47.05
68656;BME280;55638;51.122;13.606;2022-08-01T04:45:09;99862.56;;;18.49;47.01
68656;BME280;55638;51.122;13.606;2022-08-01T04:46:41;99864.06;;;18.52;46.96
68656;BME280;55638;51.122;13.606;2022-08-01T04:48:16;99864.72;;;18.54;47.21
68656;BME280;55638;51.122;13.606;2022-08-01T04:49:48;99867.25;;;18.56;47.12
68656;BME280;55638;51.122;13.606;2022-08-01T04:51:20;99868.75;;;18.58;47.49
68656;BME280;55638;51.122;13.606;2022-08-01T04:52:53;99868.56;;;18.60;47.12
68656;BME280;55638;51.122;13.606;2022-08-01T04:54:26;99868.34;;;18.61;47.30
68656;BME280;55638;51.122;13.606;2022-08-01T04:55:58;99871.09;;;18.61;47.21
68656;BME280;55638;51.122;13.606;2022-08-01T04:57:30;99874.50;;;18.63;47.36
68656;BME280;55638;51.122;13.606;2022-08-01T04:59:02;99868.81;;;18.65;47.07
68656;BME280;55638;51.122;13.606;2022-08-01T05:00:52;99871.53;;;18.65;47.43
68656;BME280;55638;51.122;13.606;2022-08-01T05:02:24;99872.38;;;18.65;47.22
68656;BME280;55638;51.122;13.606;2022-08-01T05:03:58;99878.50;;;18.67;47.28
68656;BME280;55638;51.122;13.606;2022-08-01T05:05:31;99878.31;;;18.69;47.63
68656;BME280;55638;51.122;13.606;2022-08-01T05:07:04;99876.22;;;18.71;47.37
68656;BME280;55638;51.122;13.606;2022-08-01T05:08:36;99877.72;;;18.73;47.72
68656;BME280;55638;51.122;13.606;2022-08-01T05:10:08;99876.50;;;18.76;47.74
68656;BME280;55638;51.122;13.606;2022-08-01T05:11:39;99872.72;;;18.77;47.59
68656;BME280;55638;51.122;13.606;2022-08-01T05:13:11;99883.03;;;18.82;47.82
68656;BME280;55638;51.122;13.606;2022-08-01T05:14:43;99880.75;;;18.85;47.65
68656;BME280;55638;51.122;13.606;2022-08-01T05:16:15;99881.03;;;18.90;47.98
68656;BME280;55638;51.122;13.606;2022-08-01T05:17:48;99881.31;;;18.95;47.80
68656;BME280;55638;51.122;13.606;2022-08-01T05:19:20;99883.06;;;19.03;47.74
68656;BME280;55638;51.122;13.606;2022-08-01T05:20:52;99886.88;;;19.09;47.89
68656;BME280;55638;51.122;13.606;2022-08-01T05:22:24;99885.88;;;19.16;48.10
68656;BME280;55638;51.122;13.606;2022-08-01T05:23:56;99888.66;;;19.23;47.92
68656;BME280;55638;51.122;13.606;2022-08-01T05:25:29;99892.09;;;19.32;48.00
68656;BME280;55638;51.122;13.606;2022-08-01T05:27:20;99887.09;;;19.42;47.71
68656;BME280;55638;51.122;13.606;2022-08-01T05:28:52;99885.06;;;19.51;47.75
68656;BME280;55638;51.122;13.606;2022-08-01T05:30:24;99884.88;;;19.59;47.55
68656;BME280;55638;51.122;13.606;2022-08-01T05:31:56;99888.13;;;19.69;47.66
68656;BME280;55638;51.122;13.606;2022-08-01T05:33:27;99880.75;;;19.76;47.60
68656;BME280;55638;51.122;13.606;2022-08-01T05:34:59;99888.81;;;19.84;47.33
68656;BME280;55638;51.122;13.606;2022-08-01T05:36:31;99893.50;;;19.90;47.62
68656;BME280;55638;51.122;13.606;2022-08-01T05:38:03;99886.97;;;19.98;47.45
68656;BME280;55638;51.122;13.606;2022-08-01T05:39:34;99883.19;;;20.06;47.37
68656;BME280;55638;51.122;13.606;2022-08-01T05:41:06;99889.34;;;20.14;47.43
68656;BME280;55638;51.122;13.606;2022-08-01T05:42:38;99886.22;;;20.24;47.21
68656;BME280;55638;51.122;13.606;2022-08-01T05:44:09;99881.44;;;20.33;47.19
68656;BME280;55638;51.122;13.606;2022-08-01T05:45:41;99885.66;;;20.42;47.07
68656;BME280;55638;51.122;13.606;2022-08-01T05:47:13;99874.28;;;20.52;47.04
68656;BME280;55638;51.122;13.606;2022-08-01T05:48:45;99885.69;;;20.62;46.82
68656;BME280;55638;51.122;13.606;2022-08-01T05:50:16;99880.81;;;20.71;46.44
68656;BME280;55638;51.122;13.606;2022-08-01T05:51:48;99882.72;;;20.77;46.07
68656;BME280;55638;51.122;13.606;2022-08-01T05:53:20;99884.44;;;20.84;45.95
68656;BME280;55638;51.122;13.606;2022-08-01T05:54:51;99887.38;;;20.90;45.97
68656;BME280;55638;51.122;13.606;2022-08-01T05:56:23;99884.88;;;20.95;45.88
68656;BME280;55638;51.122;13.606;2022-08-01T05:57:59;99884.47;;;20.98;46.03
68656;BME280;55638;51.122;13.606;2022-08-01T05:59:31;99892.47;;;20.99;45.54
68656;BME280;55638;51.122;13.606;2022-08-01T06:01:03;99893.31;;;21.00;45.52
68656;BME280;55638;51.122;13.606;2022-08-01T06:02:39;99895.03;;;21.01;45.48
68656;BME280;55638;51.122;13.606;2022-08-01T06:04:11;99896.94;;;21.00;45.55
68656;BME280;55638;51.122;13.606;2022-08-01T06:05:43;99894.38;;;20.99;45.52
68656;BME280;55638;51.122;13.606;2022-08-01T06:07:14;99898.19;;;20.98;45.56
68656;BME280;55638;51.122;13.606;2022-08-01T06:08:46;99903.88;;;20.96;45.39
68656;BME280;55638;51.122;13.606;2022-08-01T06:10:21;99903.25;;;20.94;45.27
68656;BME280;55638;51.122;13.606;2022-08-01T06:11:53;99899.41;;;20.89;45.39
68656;BME280;55638;51.122;13.606;2022-08-01T06:13:25;99897.94;;;20.86;45.47
68656;BME280;55638;51.122;13.606;2022-08-01T06:14:57;99910.16;;;20.83;45.47
68656;BME280;55638;51.122;13.606;2022-08-01T06:16:29;99903.41;;;20.79;45.42
68656;BME280;55638;51.122;13.606;2022-08-01T06:18:00;99913.13;;;20.75;45.71
68656;BME280;55638;51.122;13.606;2022-08-01T06:19:32;99911.88;;;20.71;45.70
68656;BME280;55638;51.122;13.606;2022-08-01T06:21:04;99912.91;;;20.70;45.67
68656;BME280;55638;51.122;13.606;2022-08-01T06:22:35;99911.22;;;20.63;46.13
68656;BME280;55638;51.122;13.606;2022-08-01T06:24:08;99924.28;;;20.60;46.39
68656;BME280;55638;51.122;13.606;2022-08-01T06:25:40;99925.13;;;20.54;46.42
68656;BME280;55638;51.122;13.606;2022-08-01T06:27:12;99921.34;;;20.49;46.58
68656;BME280;55638;51.122;13.606;2022-08-01T06:28:52;99915.41;;;20.39;46.64
68656;BME280;55638;51.122;13.606;2022-08-01T06:30:24;99925.25;;;20.26;46.98
68656;BME280;55638;51.122;13.606;2022-08-01T06:31:56;99934.91;;;20.15;47.04
68656;BME280;55638;51.122;13.606;2022-08-01T06:33:28;99935.72;;;20.03;47.65
68656;BME280;55638;51.122;13.606;2022-08-01T06:34:59;99939.25;;;19.90;48.09
68656;BME280;55638;51.122;13.606;2022-08-01T06:36:31;99943.38;;;19.79;48.10
68656;BME280;55638;51.122;13.606;2022-08-01T06:38:03;99946.03;;;19.66;48.48
68656;BME280;55638;51.122;13.606;2022-08-01T06:39:35;99952.25;;;19.53;48.80
68656;BME280;55638;51.122;13.606;2022-08-01T06:41:06;99941.22;;;19.40;49.03
68656;BME280;55638;51.122;13.606;2022-08-01T06:42:38;99940.28;;;19.26;49.33
68656;BME280;55638;51.122;13.606;2022-08-01T06:44:10;99944.59;;;19.14;49.90
68656;BME280;55638;51.122;13.606;2022-08-01T06:45:42;99943.25;;;19.03;49.93
68656;BME280;55638;51.122;13.606;2022-08-01T06:47:13;99949.06;;;18.93;50.28
68656;BME280;55638;51.122;13.606;2022-08-01T06:48:45;99947.47;;;18.84;50.37
68656;BME280;55638;51.122;13.606;2022-08-01T06:50:17;99948.47;;;18.77;51.00
68656;BME280;55638;51.122;13.606;2022-08-01T06:51:49;99962.06;;;18.70;51.33
68656;BME280;55638;51.122;13.606;2022-08-01T06:53:21;99952.94;;;18.63;51.34
68656;BME280;55638;51.122;13.606;2022-08-01T06:54:53;99951.63;;;18.59;51.44
68656;BME280;55638;51.122;13.606;2022-08-01T06:56:25;99953.06;;;18.55;51.88
68656;BME280;55638;51.122;13.606;2022-08-01T06:57:57;99949.88;;;18.51;51.70
68656;BME280;55638;51.122;13.606;2022-08-01T06:59:28;99951.13;;;18.48;52.23
68656;BME280;55638;51.122;13.606;2022-08-01T07:01:00;99952.16;;;18.47;52.51
68656;BME280;55638;51.122;13.606;2022-08-01T07:02:33;99946.88;;;18.46;52.37
68656;BME280;55638;51.122;13.606;2022-08-01T07:04:04;99947.06;;;18.44;52.88
68656;BME280;55638;51.122;13.606;2022-08-01T07:05:36;99950.84;;;18.43;52.79
68656;BME280;55638;51.122;13.606;2022-08-01T07:07:08;99954.44;;;18.44;52.75
68656;BME280;55638;51.122;13.606;2022-08-01T07:08:40;99951.50;;;18.45;52.97
68656;BME280;55638;51.122;13.606;2022-08-01T07:10:12;99950.44;;;18.46;53.26
68656;BME280;55638;51.122;13.606;2022-08-01T07:11:43;99949.22;;;18.49;53.16
68656;BME280;55638;51.122;13.606;2022-08-01T07:13:15;99951.78;;;18.50;53.86
68656;BME280;55638;51.122;13.606;2022-08-01T07:14:51;99957.50;;;18.56;53.67
68656;BME280;55638;51.122;13.606;2022-08-01T07:16:24;99948.91;;;18.59;53.63
68656;BME280;55638;51.122;13.606;2022-08-01T07:17:55;99955.66;;;18.63;53.53
68656;BME280;55638;51.122;13.606;2022-08-01T07:19:28;99955.09;;;18.67;53.44
68656;BME280;55638;51.122;13.606;2022-08-01T07:21:00;99950.94;;;18.71;53.34
68656;BME280;55638;51.122;13.606;2022-08-01T07:22:35;99950.34;;;18.76;53.43
68656;BME280;55638;51.122;13.606;2022-08-01T07:24:09;99949.53;;;18.82;53.45
68656;BME280;55638;51.122;13.606;2022-08-01T07:25:44;99958.25;;;18.86;53.58
68656;BME280;55638;51.122;13.606;2022-08-01T07:27:23;99954.72;;;18.92;53.51
68656;BME280;55638;51.122;13.606;2022-08-01T07:28:57;99951.41;;;18.96;53.31
68656;BME280;55638;51.122;13.606;2022-08-01T07:30:28;99955.25;;;19.02;53.32
68656;BME280;55638;51.122;13.606;2022-08-01T07:32:00;99953.59;;;19.08;53.54
68656;BME280;55638;51.122;13.606;2022-08-01T07:33:32;99949.91;;;19.15;53.33
68656;BME280;55638;51.122;13.606;2022-08-01T07:35:19;99944.25;;;19.24;53.80
68656;BME280;55638;51.122;13.606;2022-08-01T07:36:52;99958.44;;;19.34;53.73
68656;BME280;55638;51.122;13.606;2022-08-01T07:38:23;99948.84;;;19.44;54.35
68656;BME280;55638;51.122;13.606;2022-08-01T07:39:55;99951.66;;;19.58;54.34
68656;BME280;55638;51.122;13.606;2022-08-01T07:41:27;99950.94;;;19.71;54.05
68656;BME280;55638;51.122;13.606;2022-08-01T07:43:19;99956.72;;;19.89;53.86
68656;BME280;55638;51.122;13.606;2022-08-01T07:44:50;99958.47;;;20.03;53.41
68656;BME280;55638;51.122;13.606;2022-08-01T07:46:22;99954.56;;;20.19;53.19
68656;BME280;55638;51.122;13.606;2022-08-01T07:47:54;99948.09;;;20.33;52.87
68656;BME280;55638;51.122;13.606;2022-08-01T07:49:26;99953.41;;;20.48;52.82
68656;BME280;55638;51.122;13.606;2022-08-01T07:50:58;99949.81;;;20.61;52.74
68656;BME280;55638;51.122;13.606;2022-08-01T07:52:29;99940.78;;;20.74;52.27
68656;BME280;55638;51.122;13.606;2022-08-01T07:54:01;99945.25;;;20.88;52.14
68656;BME280;55638;51.122;13.606;2022-08-01T07:55:33;99940.63;;;21.02;52.34
68656;BME280;55638;51.122;13.606;2022-08-01T07:57:05;99941.03;;;21.19;52.31
68656;BME280;55638;51.122;13.606;2022-08-01T07:58:37;99941.88;;;21.33;52.10
68656;BME280;55638;51.122;13.606;2022-08-01T08:00:08;99948.63;;;21.50;51.75
68656;BME280;55638;51.122;13.606;2022-08-01T08:01:41;99946.72;;;21.64;51.50
68656;BME280;55638;51.122;13.606;2022-08-01T08:03:13;99938.00;;;21.80;50.55
68656;BME280;55638;51.122;13.606;2022-08-01T08:04:44;99941.97;;;21.91;50.26
68656;BME280;55638;51.122;13.606;2022-08-01T08:06:19;99941.31;;;22.02;49.70
68656;BME280;55638;51.122;13.606;2022-08-01T08:07:51;99949.31;;;22.10;49.81
68656;BME280;55638;51.122;13.606;2022-08-01T08:09:23;99949.75;;;22.20;49.93
68656;BME280;55638;51.122;13.606;2022-08-01T08:10:54;99946.28;;;22.32;49.73
68656;BME280;55638;51.122;13.606;2022-08-01T08:12:26;99945.38;;;22.44;49.90
68656;BME280;55638;51.122;13.606;2022-08-01T08:14:00;99947.81;;;22.59;49.75
68656;BME280;55638;51.122;13.606;2022-08-01T08:15:32;99951.09;;;22.75;49.35
68656;BME280;55638;51.122;13.606;2022-08-01T08:17:05;99954.63;;;22.88;49.03
68656;BME280;55638;51.122;13.606;2022-08-01T08:18:37;99942.69;;;23.01;48.80
68656;BME280;55638;51.122;13.606;2022-08-01T08:20:09;99941.06;;;23.19;48.65